sensor_id;sensor_type;location;lat;lon;timestamp;pressure;altitude;pressure_sealevel;temperature;humidity
44453;BME280;30155;52.164;21.236;2023-02-05T00:02:32;102323.85;;;-4.64;74.53
44453;BME280;30155;52.164;21.236;2023-02-05T00:07:25;102324.15;;;-4.55;74.67
44453;BME280;30155;52.164;21.236;2023-02-05T00:12:18;102323.44;;;-4.48;74.71
44453;BME280;30155;52.164;21.236;2023-02-05T00:17:11;102327.67;;;-4.43;74.70
44453;BME280;30155;52.164;21.236;2023-02-05T00:22:04;102334.15;;;-4.38;74.59
44453;BME280;30155;52.164;21.236;2023-02-05T00:26:56;102337.48;;;-4.32;74.57
44453;BME280;30155;52.164;21.236;2023-02-05T00:31:49;102342.34;;;-4.28;74.27
44453;BME280;30155;52.164;21.236;2023-02-05T00:36:43;102338.65;;;-4.24;74.50
44453;BME280;30155;52.164;21.236;2023-02-05T00:41:37;102329.16;;;-4.21;74.51
44453;BME280;30155;52.164;21.236;2023-02-05T00:46:30;102325.89;;;-4.17;74.43
44453;BME280;30155;52.164;21.236;2023-02-05T00:51:23;102334.56;;;-4.14;74.39
44453;BME280;30155;52.164;21.236;2023-02-05T00:56:15;102333.33;;;-4.11;74.41
44453;BME280;30155;52.164;21.236;2023-02-05T01:01:09;102332.33;;;-4.08;74.52
44453;BME280;30155;52.164;21.236;2023-02-05T01:06:04;102336.94;;;-4.06;74.56
44453;BME280;30155;52.164;21.236;2023-02-05T01:10:57;102336.20;;;-4.05;74.41
44453;BME280;30155;52.164;21.236;2023-02-05T01:15:50;102333.70;;;-4.06;74.37
44453;BME280;30155;52.164;21.236;2023-02-05T01:20:43;102335.32;;;-4.05;74.40
44453;BME280;30155;52.164;21.236;2023-02-05T01:25:36;102332.83;;;-4.03;74.30
44453;BME280;30155;52.164;21.236;2023-02-05T01:30:29;102328.81;;;-4.02;74.29
44453;BME280;30155;52.164;21.236;2023-02-05T01:35:22;102326.02;;;-4.00;74.43
44453;BME280;30155;52.164;21.236;2023-02-05T01:40:17;102317.93;;;-3.99;74.50
44453;BME280;30155;52.164;21.236;2023-02-05T01:50:18;102316.08;;;-3.96;74.50
44453;BME280;30155;52.164;21.236;2023-02-05T01:55:12;102318.33;;;-3.94;74.11
44453;BME280;30155;52.164;21.236;2023-02-05T02:00:07;102313.48;;;-3.93;74.49
44453;BME280;30155;52.164;21.236;2023-02-05T02:05:12;102306.87;;;-3.91;74.32
44453;BME280;30155;52.164;21.236;2023-02-05T02:10:08;102311.48;;;-3.89;74.39
44453;BME280;30155;52.164;21.236;2023-02-05T02:15:10;102313.08;;;-3.87;74.40
44453;BME280;30155;52.164;21.236;2023-02-05T02:35:46;102321.02;;;-3.80;74.22
44453;BME280;30155;52.164;21.236;2023-02-05T02:40:54;102321.53;;;-3.80;74.13
44453;BME280;30155;52.164;21.236;2023-02-05T02:45:55;102334.34;;;-3.79;74.19
44453;BME280;30155;52.164;21.236;2023-02-05T02:50:53;102338.88;;;-3.78;74.41
44453;BME280;30155;52.164;21.236;2023-02-05T02:55:48;102347.27;;;-3.76;74.13
44453;BME280;30155;52.164;21.236;2023-02-05T03:00:45;102359.55;;;-3.76;74.23
44453;BME280;30155;52.164;21.236;2023-02-05T03:05:40;102360.89;;;-3.76;74.16
44453;BME280;30155;52.164;21.236;2023-02-05T03:10:43;102361.17;;;-3.75;73.90
44453;BME280;30155;52.164;21.236;2023-02-05T03:15:40;102360.92;;;-3.74;74.10
44453;BME280;30155;52.164;21.236;2023-02-05T03:20:52;102358.18;;;-3.71;74.27
44453;BME280;30155;52.164;21.236;2023-02-05T03:25:47;102359.03;;;-3.69;74.10
44453;BME280;30155;52.164;21.236;2023-02-05T03:30:58;102359.13;;;-3.69;74.17
44453;BME280;30155;52.164;21.236;2023-02-05T03:36:08;102359.78;;;-3.67;73.98
44453;BME280;30155;52.164;21.236;2023-02-05T03:51:21;102348.66;;;-3.61;74.18
44453;BME280;30155;52.164;21.236;2023-02-05T03:56:23;102342.33;;;-3.60;74.13
44453;BME280;30155;52.164;21.236;2023-02-05T04:01:18;102342.61;;;-3.61;73.90
44453;BME280;30155;52.164;21.236;2023-02-05T04:06:12;102339.56;;;-3.61;73.74
44453;BME280;30155;52.164;21.236;2023-02-05T04:11:05;102347.99;;;-3.59;74.12
44453;BME280;30155;52.164;21.236;2023-02-05T04:15:59;102350.68;;;-3.60;73.86
44453;BME280;30155;52.164;21.236;2023-02-05T04:20:52;102351.55;;;-3.61;74.10
44453;BME280;30155;52.164;21.236;2023-02-05T04:25:51;102349.01;;;-3.63;73.83
44453;BME280;30155;52.164;21.236;2023-02-05T04:30:45;102344.55;;;-3.64;73.96
44453;BME280;30155;52.164;21.236;2023-02-05T04:35:39;102345.98;;;-3.64;73.90
44453;BME280;30155;52.164;21.236;2023-02-05T04:40:32;102354.80;;;-3.68;74.21
44453;BME280;30155;52.164;21.236;2023-02-05T04:45:25;102362.92;;;-3.68;74.02
44453;BME280;30155;52.164;21.236;2023-02-05T04:50:22;102364.84;;;-3.67;74.14
44453;BME280;30155;52.164;21.236;2023-02-05T04:55:15;102366.69;;;-3.68;74.27
44453;BME280;30155;52.164;21.236;2023-02-05T05:00:09;102368.70;;;-3.68;74.26
44453;BME280;30155;52.164;21.236;2023-02-05T05:05:02;102368.73;;;-3.67;74.34
44453;BME280;30155;52.164;21.236;2023-02-05T05:09:55;102374.54;;;-3.67;74.48
44453;BME280;30155;52.164;21.236;2023-02-05T05:14:48;102377.38;;;-3.66;74.37
44453;BME280;30155;52.164;21.236;2023-02-05T05:19:41;102373.48;;;-3.66;74.36
44453;BME280;30155;52.164;21.236;2023-02-05T05:24:33;102368.19;;;-3.66;74.37
44453;BME280;30155;52.164;21.236;2023-02-05T05:29:26;102374.14;;;-3.66;74.53
44453;BME280;30155;52.164;21.236;2023-02-05T05:34:19;102381.05;;;-3.66;74.48
44453;BME280;30155;52.164;21.236;2023-02-05T05:39:13;102384.91;;;-3.65;74.55
44453;BME280;30155;52.164;21.236;2023-02-05T05:44:24;102383.30;;;-3.64;74.68
44453;BME280;30155;52.164;21.236;2023-02-05T05:49:17;102382.37;;;-3.65;74.64
44453;BME280;30155;52.164;21.236;2023-02-05T05:54:10;102391.29;;;-3.67;74.66
44453;BME280;30155;52.164;21.236;2023-02-05T05:59:03;102395.73;;;-3.68;74.64
44453;BME280;30155;52.164;21.236;2023-02-05T06:03:55;102397.73;;;-3.69;74.71
44453;BME280;30155;52.164;21.236;2023-02-05T06:08:48;102403.45;;;-3.68;74.97
44453;BME280;30155;52.164;21.236;2023-02-05T06:13:41;102413.80;;;-3.67;74.62
44453;BME280;30155;52.164;21.236;2023-02-05T06:18:34;102419.00;;;-3.68;74.72
44453;BME280;30155;52.164;21.236;2023-02-05T06:23:28;102422.86;;;-3.68;74.63
44453;BME280;30155;52.164;21.236;2023-02-05T06:28:20;102433.83;;;-3.69;74.52
44453;BME280;30155;52.164;21.236;2023-02-05T06:33:13;102436.89;;;-3.67;74.78
44453;BME280;30155;52.164;21.236;2023-02-05T06:38:06;102439.98;;;-3.67;74.75
44453;BME280;30155;52.164;21.236;2023-02-05T06:43:00;102444.50;;;-3.66;74.63
44453;BME280;30155;52.164;21.236;2023-02-05T06:47:53;102450.91;;;-3.64;74.54
44453;BME280;30155;52.164;21.236;2023-02-05T06:52:46;102460.41;;;-3.61;74.96
44453;BME280;30155;52.164;21.236;2023-02-05T06:57:40;102461.66;;;-3.58;74.78
44453;BME280;30155;52.164;21.236;2023-02-05T07:02:33;102466.60;;;-3.58;74.51
44453;BME280;30155;52.164;21.236;2023-02-05T07:07:26;102466.59;;;-3.55;74.91
44453;BME280;30155;52.164;21.236;2023-02-05T07:12:19;102465.46;;;-3.53;74.83
44453;BME280;30155;52.164;21.236;2023-02-05T07:17:12;102467.17;;;-3.51;74.75
44453;BME280;30155;52.164;21.236;2023-02-05T07:22:05;102474.64;;;-3.46;74.77
44453;BME280;30155;52.164;21.236;2023-02-05T07:26:58;102483.95;;;-3.39;74.86
44453;BME280;30155;52.164;21.236;2023-02-05T07:31:51;102491.23;;;-3.32;74.70
44453;BME280;30155;52.164;21.236;2023-02-05T07:36:44;102493.22;;;-3.21;74.77
44453;BME280;30155;52.164;21.236;2023-02-05T07:41:37;102488.60;;;-3.01;74.43
44453;BME280;30155;52.164;21.236;2023-02-05T07:46:30;102490.31;;;-2.82;74.29
44453;BME280;30155;52.164;21.236;2023-02-05T07:51:24;102493.77;;;-2.66;73.83
44453;BME280;30155;52.164;21.236;2023-02-05T07:56:17;102498.08;;;-2.58;73.54
44453;BME280;30155;52.164;21.236;2023-02-05T08:01:12;102496.56;;;-2.55;73.75
44453;BME280;30155;52.164;21.236;2023-02-05T08:06:06;102498.73;;;-2.59;73.34
44453;BME280;30155;52.164;21.236;2023-02-05T08:11:02;102503.65;;;-2.49;73.50
44453;BME280;30155;52.164;21.236;2023-02-05T08:15:56;102503.59;;;-2.39;73.21
44453;BME280;30155;52.164;21.236;2023-02-05T08:20:53;102508.43;;;-2.32;73.36
44453;BME280;30155;52.164;21.236;2023-02-05T08:25:46;102512.00;;;-2.22;73.20
44453;BME280;30155;52.164;21.236;2023-02-05T08:30:39;102516.60;;;-2.15;73.13
44453;BME280;30155;52.164;21.236;2023-02-05T08:35:32;102529.09;;;-2.16;72.95
44453;BME280;30155;52.164;21.236;2023-02-05T08:40:26;102527.46;;;-2.15;72.79
44453;BME280;30155;52.164;21.236;2023-02-05T08:45:18;102528.74;;;-2.12;72.70
44453;BME280;30155;52.164;21.236;2023-02-05T08:50:11;102535.60;;;-1.99;72.70
44453;BME280;30155;52.164;21.236;2023-02-05T08:55:06;102539.58;;;-1.84;72.19
44453;BME280;30155;52.164;21.236;2023-02-05T08:59:59;102536.63;;;-1.49;71.94
44453;BME280;30155;52.164;21.236;2023-02-05T09:04:52;102538.19;;;-1.24;71.03
44453;BME280;30155;52.164;21.236;2023-02-05T09:09:59;102542.77;;;-0.77;69.77
44453;BME280;30155;52.164;21.236;2023-02-05T09:14:52;102550.04;;;0.09;68.06
44453;BME280;30155;52.164;21.236;2023-02-05T09:19:44;102557.45;;;0.34;67.53
44453;BME280;30155;52.164;21.236;2023-02-05T09:24:37;102567.39;;;0.03;67.06
44453;BME280;30155;52.164;21.236;2023-02-05T09:29:30;102573.69;;;-0.20;67.80
44453;BME280;30155;52.164;21.236;2023-02-05T09:34:24;102583.36;;;-0.45;67.43
44453;BME280;30155;52.164;21.236;2023-02-05T09:39:17;102584.11;;;-0.68;67.34
44453;BME280;30155;52.164;21.236;2023-02-05T09:44:55;102592.09;;;-0.80;67.46
44453;BME280;30155;52.164;21.236;2023-02-05T09:54:57;102585.58;;;-0.34;66.85
44453;BME280;30155;52.164;21.236;2023-02-05T09:59:52;102586.09;;;-0.53;67.25
44453;BME280;30155;52.164;21.236;2023-02-05T10:04:45;102582.81;;;-0.77;67.57
44453;BME280;30155;52.164;21.236;2023-02-05T10:10:01;102588.38;;;-0.98;67.58
44453;BME280;30155;52.164;21.236;2023-02-05T10:15:46;102592.45;;;-1.15;67.40
44453;BME280;30155;52.164;21.236;2023-02-05T10:25:44;102590.09;;;-1.30;68.25
44453;BME280;30155;52.164;21.236;2023-02-05T10:36:00;102584.94;;;-1.33;67.63
44453;BME280;30155;52.164;21.236;2023-02-05T10:40:56;102577.15;;;-1.20;67.28
44453;BME280;30155;52.164;21.236;2023-02-05T10:45:51;102573.84;;;-1.11;67.06
44453;BME280;30155;52.164;21.236;2023-02-05T10:51:01;102576.05;;;-1.02;67.00
44453;BME280;30155;52.164;21.236;2023-02-05T10:55:59;102578.95;;;-0.97;66.62
44453;BME280;30155;52.164;21.236;2023-02-05T11:00:53;102574.97;;;-0.88;66.65
44453;BME280;30155;52.164;21.236;2023-02-05T11:05:47;102564.94;;;-0.79;66.39
44453;BME280;30155;52.164;21.236;2023-02-05T11:10:41;102567.02;;;-0.74;66.08
44453;BME280;30155;52.164;21.236;2023-02-05T11:15:34;102562.04;;;-0.69;66.38
44453;BME280;30155;52.164;21.236;2023-02-05T11:25:22;102546.16;;;-0.57;66.11
44453;BME280;30155;52.164;21.236;2023-02-05T11:30:38;102540.49;;;-0.45;65.61
44453;BME280;30155;52.164;21.236;2023-02-05T11:36:01;102546.19;;;-0.28;65.82
44453;BME280;30155;52.164;21.236;2023-02-05T11:40:58;102543.45;;;-0.23;64.97
44453;BME280;30155;52.164;21.236;2023-02-05T11:45:52;102544.95;;;-0.19;65.27
44453;BME280;30155;52.164;21.236;2023-02-05T11:50:47;102541.89;;;-0.10;65.39
44453;BME280;30155;52.164;21.236;2023-02-05T11:55:42;102543.95;;;-0.02;65.48
44453;BME280;30155;52.164;21.236;2023-02-05T12:00:36;102542.95;;;-0.02;65.39
44453;BME280;30155;52.164;21.236;2023-02-05T12:05:35;102541.06;;;-0.11;65.55
44453;BME280;30155;52.164;21.236;2023-02-05T12:10:50;102546.05;;;-0.24;65.18
44453;BME280;30155;52.164;21.236;2023-02-05T12:26:36;102546.40;;;-0.58;65.75
44453;BME280;30155;52.164;21.236;2023-02-05T13:01:49;102539.74;;;-1.03;66.57
44453;BME280;30155;52.164;21.236;2023-02-05T13:06:51;102538.92;;;-1.08;66.78
44453;BME280;30155;52.164;21.236;2023-02-05T13:11:52;102546.75;;;-1.13;66.79
44453;BME280;30155;52.164;21.236;2023-02-05T13:16:49;102536.52;;;-1.14;66.94
44453;BME280;30155;52.164;21.236;2023-02-05T13:21:45;102530.52;;;-1.14;66.77
44453;BME280;30155;52.164;21.236;2023-02-05T13:26:55;102536.93;;;-1.11;66.72
44453;BME280;30155;52.164;21.236;2023-02-05T13:32:08;102538.40;;;-1.06;66.71
44453;BME280;30155;52.164;21.236;2023-02-05T13:37:31;102545.72;;;-1.01;67.06
44453;BME280;30155;52.164;21.236;2023-02-05T14:03:24;102553.14;;;-1.09;67.49
44453;BME280;30155;52.164;21.236;2023-02-05T14:08:22;102544.58;;;-1.09;67.59
44453;BME280;30155;52.164;21.236;2023-02-05T14:13:17;102541.48;;;-1.08;67.42
44453;BME280;30155;52.164;21.236;2023-02-05T14:28:48;102541.28;;;-0.92;67.49
44453;BME280;30155;52.164;21.236;2023-02-05T14:33:43;102545.30;;;-0.85;67.52
44453;BME280;30155;52.164;21.236;2023-02-05T14:38:38;102547.98;;;-0.89;67.18
44453;BME280;30155;52.164;21.236;2023-02-05T14:43:33;102549.42;;;-0.99;67.28
44453;BME280;30155;52.164;21.236;2023-02-05T14:48:31;102552.40;;;-1.07;67.26
44453;BME280;30155;52.164;21.236;2023-02-05T14:53:25;102558.46;;;-1.16;67.33
44453;BME280;30155;52.164;21.236;2023-02-05T14:58:23;102563.94;;;-1.28;67.37
44453;BME280;30155;52.164;21.236;2023-02-05T15:03:23;102565.03;;;-1.38;67.59
44453;BME280;30155;52.164;21.236;2023-02-05T15:08:26;102574.98;;;-1.46;67.66
44453;BME280;30155;52.164;21.236;2023-02-05T15:13:26;102577.16;;;-1.56;67.88
44453;BME280;30155;52.164;21.236;2023-02-05T15:18:24;102590.71;;;-1.60;67.76
44453;BME280;30155;52.164;21.236;2023-02-05T15:23:44;102600.67;;;-1.61;67.81
44453;BME280;30155;52.164;21.236;2023-02-05T15:28:55;102607.39;;;-1.60;67.89
44453;BME280;30155;52.164;21.236;2023-02-05T15:33:57;102611.05;;;-1.61;67.99
44453;BME280;30155;52.164;21.236;2023-02-05T15:38:59;102612.16;;;-1.65;67.76
44453;BME280;30155;52.164;21.236;2023-02-05T15:43:59;102616.63;;;-1.70;68.28
44453;BME280;30155;52.164;21.236;2023-02-05T15:48:53;102610.48;;;-1.77;67.68
44453;BME280;30155;52.164;21.236;2023-02-05T15:53:49;102604.38;;;-1.82;68.00
44453;BME280;30155;52.164;21.236;2023-02-05T15:59:05;102611.13;;;-1.86;68.18
44453;BME280;30155;52.164;21.236;2023-02-05T16:09:24;102619.43;;;-1.96;68.08
44453;BME280;30155;52.164;21.236;2023-02-05T16:14:20;102618.80;;;-1.93;67.98
44453;BME280;30155;52.164;21.236;2023-02-05T16:19:20;102618.46;;;-1.89;68.00
44453;BME280;30155;52.164;21.236;2023-02-05T16:24:30;102619.13;;;-1.86;68.24
44453;BME280;30155;52.164;21.236;2023-02-05T16:29:32;102616.81;;;-1.87;68.32
44453;BME280;30155;52.164;21.236;2023-02-05T16:34:39;102615.26;;;-1.89;68.33
44453;BME280;30155;52.164;21.236;2023-02-05T16:39:40;102618.52;;;-1.94;68.71
44453;BME280;30155;52.164;21.236;2023-02-05T16:44:36;102624.11;;;-2.00;68.69
44453;BME280;30155;52.164;21.236;2023-02-05T16:49:30;102633.23;;;-2.04;68.46
44453;BME280;30155;52.164;21.236;2023-02-05T16:54:27;102635.38;;;-2.07;68.46
44453;BME280;30155;52.164;21.236;2023-02-05T16:59:29;102635.51;;;-2.08;68.59
44453;BME280;30155;52.164;21.236;2023-02-05T17:04:28;102643.21;;;-2.04;68.35
44453;BME280;30155;52.164;21.236;2023-02-05T17:09:31;102652.13;;;-2.00;68.58
44453;BME280;30155;52.164;21.236;2023-02-05T17:14:30;102654.44;;;-1.97;68.61
44453;BME280;30155;52.164;21.236;2023-02-05T17:19:28;102651.83;;;-1.98;68.47
44453;BME280;30155;52.164;21.236;2023-02-05T17:24:24;102652.73;;;-2.03;68.49
44453;BME280;30155;52.164;21.236;2023-02-05T17:29:17;102644.11;;;-2.07;68.33
44453;BME280;30155;52.164;21.236;2023-02-05T17:34:10;102643.65;;;-2.12;68.49
44453;BME280;30155;52.164;21.236;2023-02-05T17:39:03;102642.84;;;-2.15;68.57
44453;BME280;30155;52.164;21.236;2023-02-05T17:43:59;102642.38;;;-2.17;68.66
44453;BME280;30155;52.164;21.236;2023-02-05T17:48:52;102648.23;;;-2.20;68.74
44453;BME280;30155;52.164;21.236;2023-02-05T17:53:46;102652.81;;;-2.18;68.78
44453;BME280;30155;52.164;21.236;2023-02-05T17:58:39;102669.52;;;-2.15;68.67
44453;BME280;30155;52.164;21.236;2023-02-05T18:03:33;102677.79;;;-2.07;68.71
44453;BME280;30155;52.164;21.236;2023-02-05T18:08:26;102681.17;;;-2.05;68.55
44453;BME280;30155;52.164;21.236;2023-02-05T18:13:20;102680.01;;;-2.05;68.62
44453;BME280;30155;52.164;21.236;2023-02-05T18:18:13;102681.74;;;-2.06;68.75
44453;BME280;30155;52.164;21.236;2023-02-05T18:23:06;102683.78;;;-2.10;68.95
44453;BME280;30155;52.164;21.236;2023-02-05T18:28:02;102686.14;;;-2.13;68.85
44453;BME280;30155;52.164;21.236;2023-02-05T18:32:56;102684.06;;;-2.17;68.76
44453;BME280;30155;52.164;21.236;2023-02-05T18:37:49;102685.92;;;-2.21;68.94
44453;BME280;30155;52.164;21.236;2023-02-05T18:42:45;102693.16;;;-2.24;68.95
44453;BME280;30155;52.164;21.236;2023-02-05T18:47:39;102688.55;;;-2.25;68.95
44453;BME280;30155;52.164;21.236;2023-02-05T18:52:31;102688.77;;;-2.21;68.93
44453;BME280;30155;52.164;21.236;2023-02-05T18:57:24;102679.36;;;-2.18;68.87
44453;BME280;30155;52.164;21.236;2023-02-05T19:02:17;102669.84;;;-2.25;68.63
44453;BME280;30155;52.164;21.236;2023-02-05T19:07:10;102673.65;;;-2.38;68.81
44453;BME280;30155;52.164;21.236;2023-02-05T19:12:03;102680.43;;;-2.55;68.92
44453;BME280;30155;52.164;21.236;2023-02-05T19:16:56;102698.08;;;-2.77;68.85
44453;BME280;30155;52.164;21.236;2023-02-05T19:21:53;102698.92;;;-2.99;69.05
44453;BME280;30155;52.164;21.236;2023-02-05T19:26:48;102700.45;;;-3.17;69.22
44453;BME280;30155;52.164;21.236;2023-02-05T19:31:42;102697.71;;;-3.35;69.28
44453;BME280;30155;52.164;21.236;2023-02-05T19:36:36;102686.86;;;-3.55;69.43
44453;BME280;30155;52.164;21.236;2023-02-05T19:41:32;102695.76;;;-3.68;69.61
44453;BME280;30155;52.164;21.236;2023-02-05T19:46:27;102693.93;;;-3.79;69.55
44453;BME280;30155;52.164;21.236;2023-02-05T19:51:22;102691.51;;;-3.89;69.73
44453;BME280;30155;52.164;21.236;2023-02-05T19:56:18;102704.34;;;-3.99;69.53
44453;BME280;30155;52.164;21.236;2023-02-05T20:01:16;102701.47;;;-4.12;69.47
44453;BME280;30155;52.164;21.236;2023-02-05T20:06:14;102705.13;;;-4.25;70.14
44453;BME280;30155;52.164;21.236;2023-02-05T20:11:07;102716.40;;;-4.40;70.06
44453;BME280;30155;52.164;21.236;2023-02-05T20:16:06;102720.31;;;-4.57;70.06
44453;BME280;30155;52.164;21.236;2023-02-05T20:21:12;102733.82;;;-4.72;70.05
44453;BME280;30155;52.164;21.236;2023-02-05T20:26:07;102739.86;;;-4.88;69.95
44453;BME280;30155;52.164;21.236;2023-02-05T20:31:00;102744.61;;;-5.02;70.27
44453;BME280;30155;52.164;21.236;2023-02-05T20:36:11;102751.52;;;-5.11;70.34
44453;BME280;30155;52.164;21.236;2023-02-05T20:41:12;102752.89;;;-5.14;70.80
44453;BME280;30155;52.164;21.236;2023-02-05T20:46:06;102761.59;;;-5.15;70.49
44453;BME280;30155;52.164;21.236;2023-02-05T20:51:09;102763.05;;;-5.21;70.48
44453;BME280;30155;52.164;21.236;2023-02-05T20:56:04;102764.06;;;-5.26;71.10
44453;BME280;30155;52.164;21.236;2023-02-05T21:01:09;102766.54;;;-5.34;71.13
44453;BME280;30155;52.164;21.236;2023-02-05T21:06:03;102774.53;;;-5.49;70.85
44453;BME280;30155;52.164;21.236;2023-02-05T21:10:56;102784.94;;;-5.64;70.92
44453;BME280;30155;52.164;21.236;2023-02-05T21:15:54;102793.05;;;-5.77;71.18
44453;BME280;30155;52.164;21.236;2023-02-05T21:20:48;102790.32;;;-5.86;71.44
44453;BME280;30155;52.164;21.236;2023-02-05T21:25:41;102790.40;;;-5.88;71.73
44453;BME280;30155;52.164;21.236;2023-02-05T21:30:35;102795.33;;;-5.91;71.81
44453;BME280;30155;52.164;21.236;2023-02-05T21:35:28;102801.86;;;-5.93;71.88
44453;BME280;30155;52.164;21.236;2023-02-05T21:40:21;102808.95;;;-6.00;71.37
44453;BME280;30155;52.164;21.236;2023-02-05T21:45:14;102816.27;;;-6.10;71.56
44453;BME280;30155;52.164;21.236;2023-02-05T21:50:07;102825.72;;;-6.21;71.91
44453;BME280;30155;52.164;21.236;2023-02-05T21:55:00;102815.92;;;-6.29;72.20
44453;BME280;30155;52.164;21.236;2023-02-05T21:59:53;102817.42;;;-6.42;71.73
44453;BME280;30155;52.164;21.236;2023-02-05T22:04:46;102821.04;;;-6.53;71.76
44453;BME280;30155;52.164;21.236;2023-02-05T22:09:39;102813.87;;;-6.57;72.36
44453;BME280;30155;52.164;21.236;2023-02-05T22:14:32;102825.08;;;-6.59;71.93
44453;BME280;30155;52.164;21.236;2023-02-05T22:19:26;102831.15;;;-6.63;72.03
44453;BME280;30155;52.164;21.236;2023-02-05T22:24:20;102833.49;;;-6.60;72.62
44453;BME280;30155;52.164;21.236;2023-02-05T22:29:16;102836.50;;;-6.55;72.43
44453;BME280;30155;52.164;21.236;2023-02-05T22:34:10;102844.56;;;-6.61;71.50
44453;BME280;30155;52.164;21.236;2023-02-05T22:39:04;102847.09;;;-6.67;72.02
44453;BME280;30155;52.164;21.236;2023-02-05T22:43:59;102841.38;;;-6.65;72.02
44453;BME280;30155;52.164;21.236;2023-02-05T22:48:53;102834.52;;;-6.65;72.26
44453;BME280;30155;52.164;21.236;2023-02-05T22:53:46;102835.19;;;-6.64;72.17
44453;BME280;30155;52.164;21.236;2023-02-05T22:58:42;102834.69;;;-6.67;72.00
44453;BME280;30155;52.164;21.236;2023-02-05T23:03:38;102833.27;;;-6.68;72.29
44453;BME280;30155;52.164;21.236;2023-02-05T23:08:31;102827.84;;;-6.71;72.27
44453;BME280;30155;52.164;21.236;2023-02-05T23:13:24;102829.76;;;-6.72;72.24
44453;BME280;30155;52.164;21.236;2023-02-05T23:18:16;102829.46;;;-6.69;72.50
44453;BME280;30155;52.164;21.236;2023-02-05T23:23:09;102825.79;;;-6.68;72.18
44453;BME280;30155;52.164;21.236;2023-02-05T23:28:02;102825.41;;;-6.70;71.81
44453;BME280;30155;52.164;21.236;2023-02-05T23:32:56;102829.46;;;-6.71;71.86
44453;BME280;30155;52.164;21.236;2023-02-05T23:37:48;102833.48;;;-6.70;71.89
44453;BME280;30155;52.164;21.236;2023-02-05T23:42:42;102831.27;;;-6.73;72.02
44453;BME280;30155;52.164;21.236;2023-02-05T23:47:36;102827.52;;;-6.74;72.07
44453;BME280;30155;52.164;21.236;2023-02-05T23:52:29;102818.61;;;-6.73;72.15
44453;BME280;30155;52.164;21.236;2023-02-05T23:57:21;102818.55;;;-6.74;72.29
